Nrc Columbia — WDA8288 — position and weather

sailwx.info

Track history (hours):
 
Tides and Currents Weather Stations Pressure Air Temp Water Temp Dewpoint Dewpoint Depression Visibility Wind Speed Wind Dir Waves Ship Positions

Nrc Columbia

Owner: National Response Corporation, HOUSTON, TX. More information available from US FCC via Universal Licensing System and Coast Guard Vessel Documentation Center.

Last reported at 2016-Feb-06 08:27 UTC. Time now 2016-Feb-06 09:19 UTC.
Position N 48°43' W 122°31'.

Length 35 m.

Type: Pollution control. MMSI: 366710170.

Date/timePositionNaut miles runAvg speedWind from/ knotsBaromVisibWave heightAir tempDewpointWater temp
2016-Feb-06 08:27N 48°43' W 122°31'0 0.0
2016-Feb-06 07:27N 48°43' W 122°31'0 0.0
2016-Feb-06 06:27N 48°43' W 122°31'0 0.0
2016-Feb-06 05:33N 48°43' W 122°31'0 0.0
2016-Feb-06 04:12N 48°43' W 122°31'0 0.0
2016-Feb-06 03:30N 48°43' W 122°31'0 0.0
2016-Feb-06 02:33N 48°43' W 122°31'0 0.0
2016-Feb-06 01:33N 48°43' W 122°31'0 0.0
2016-Feb-06 00:33N 48°43' W 122°31'0 0.1
2016-Feb-05 23:33N 48°43' W 122°31'4 4.5
2016-Feb-05 22:33N 48°40' W 122°36'6 6.4
2016-Feb-05 21:34N 48°45' W 122°42'5 1.1
2016-Feb-05 17:20N 48°50' W 122°43'0 0.0
2016-Feb-05 15:08N 48°50' W 122°43'0 0.0
2016-Feb-05 10:32N 48°50' W 122°43'0 0.0
2016-Feb-03 11:14N 48°50' W 122°43'0 0.0
2016-Feb-03 10:26N 48°50' W 122°43'0 0.0
2016-Feb-03 09:26N 48°50' W 122°43'0 0.0
2016-Feb-03 08:26N 48°50' W 122°43'0 0.0
2016-Feb-03 06:32N 48°50' W 122°43'0 0.0
2016-Feb-03 01:14N 48°50' W 122°43'0 0.0
2016-Feb-02 06:29N 48°50' W 122°43'0 0.0
2016-Feb-02 05:29N 48°50' W 122°43'0 0.0
2016-Feb-02 04:05N 48°50' W 122°43'0 0.0
2016-Feb-02 03:32N 48°50' W 122°43'0 0.0
2016-Feb-02 00:08N 48°50' W 122°43'0 0.0
2016-Feb-01 23:32N 48°50' W 122°43'0 0.0
2016-Feb-01 20:29N 48°50' W 122°43'0 0.0
2016-Feb-01 18:14N 48°50' W 122°43'0 0.0
2016-Feb-01 07:32N 48°50' W 122°43'0 0.0
2016-Feb-01 04:26N 48°50' W 122°43'0 0.0
2016-Feb-01 03:32N 48°50' W 122°43'0 0.0
2016-Feb-01 00:14N 48°50' W 122°43'0 0.0
2016-Jan-31 22:08N 48°50' W 122°43'0 0.0
2016-Jan-31 21:32N 48°50' W 122°43'0 0.0
2016-Jan-31 20:23N 48°50' W 122°43'0 0.0
2016-Jan-31 18:32N 48°50' W 122°43'0 0.0
2016-Jan-31 17:26N 48°50' W 122°43'0 0.0
2016-Jan-31 07:26N 48°50' W 122°43'0 0.0
2016-Jan-31 03:23N 48°50' W 122°43'0 0.0
2016-Jan-30 22:26N 48°50' W 122°43'0 0.0
2016-Jan-30 21:32N 48°50' W 122°43'0 0.0
2016-Jan-30 15:14N 48°50' W 122°43'0 0.0
2016-Jan-30 14:29N 48°50' W 122°43'0 0.0
2016-Jan-30 13:29N 48°50' W 122°43'0 0.0
2016-Jan-30 12:20N 48°50' W 122°43'0 0.0
2016-Jan-30 11:32N 48°50' W 122°43'0 0.0
2016-Jan-30 10:14N 48°50' W 122°43'0 0.0
2016-Jan-30 09:26N 48°50' W 122°43'0 0.0
2016-Jan-30 08:32N 48°50' W 122°43'0 0.0
2016-Jan-30 07:29N 48°50' W 122°43'0 0.0
2016-Jan-30 06:23N 48°50' W 122°43'0 0.0
2016-Jan-30 03:26N 48°50' W 122°43'0 0.0
2016-Jan-30 02:23N 48°50' W 122°43'5 2.6
2016-Jan-30 00:30N 48°45' W 122°42'0 0.0
2016-Jan-29 23:21N 48°45' W 122°42'0 0.0
2016-Jan-29 22:30N 48°45' W 122°42'5 4.8
2016-Jan-29 21:29N 48°50' W 122°43'0 0.0
2016-Jan-29 14:18N 48°50' W 122°43'0 0.0
2016-Jan-29 13:31N 48°50' W 122°43'0 0.0
2016-Jan-29 12:33N 48°50' W 122°43'0 0.0
2016-Jan-29 11:18N 48°50' W 122°43'0 0.0
2016-Jan-29 10:24N 48°50' W 122°43'0 0.0
2016-Jan-29 09:30N 48°50' W 122°43'0 0.0
2016-Jan-29 04:27N 48°50' W 122°43'0 0.0
2016-Jan-29 01:24N 48°50' W 122°43'0 0.0
2016-Jan-29 00:24N 48°50' W 122°43'0 0.0
2016-Jan-28 23:18N 48°50' W 122°43'0 0.0
2016-Jan-28 22:09N 48°50' W 122°43'0 0.0
2016-Jan-28 18:27N 48°50' W 122°43'0 0.0
2016-Jan-28 16:33N 48°50' W 122°43'0 0.0
2016-Jan-28 14:33N 48°50' W 122°43'0 0.0
2016-Jan-28 03:24N 48°50' W 122°43'0 0.0
2016-Jan-27 22:27N 48°50' W 122°43'0 0.0
2016-Jan-27 20:09N 48°50' W 122°43'0 0.0
2016-Jan-27 18:24N 48°50' W 122°43'  
Track history (hours):
 
Tides and Currents Weather Stations Pressure Air Temp Water Temp Dewpoint Dewpoint Depression Visibility Wind Speed Wind Dir Waves Ship Positions

Nrc Columbia

Owner: National Response Corporation, HOUSTON, TX. More information available from US FCC via Universal Licensing System and Coast Guard Vessel Documentation Center.

Last reported at 2016-Feb-06 08:27 UTC. Time now 2016-Feb-06 09:19 UTC.
Position N 48°43' W 122°31'.

Length 35 m.

Type: Pollution control. MMSI: 366710170.

Date/timePositionNaut miles runAvg speedWind from/ knotsBaromVisibWave heightAir tempDewpointWater temp
2016-Feb-06 08:27N 48°43' W 122°31'0 0.0
2016-Feb-06 07:27N 48°43' W 122°31'0 0.0
2016-Feb-06 06:27N 48°43' W 122°31'0 0.0
2016-Feb-06 05:33N 48°43' W 122°31'0 0.0
2016-Feb-06 04:12N 48°43' W 122°31'0 0.0
2016-Feb-06 03:30N 48°43' W 122°31'0 0.0
2016-Feb-06 02:33N 48°43' W 122°31'0 0.0
2016-Feb-06 01:33N 48°43' W 122°31'0 0.0
2016-Feb-06 00:33N 48°43' W 122°31'0 0.1
2016-Feb-05 23:33N 48°43' W 122°31'4 4.5
2016-Feb-05 22:33N 48°40' W 122°36'6 6.4
2016-Feb-05 21:34N 48°45' W 122°42'5 1.1
2016-Feb-05 17:20N 48°50' W 122°43'0 0.0
2016-Feb-05 15:08N 48°50' W 122°43'0 0.0
2016-Feb-05 10:32N 48°50' W 122°43'0 0.0
2016-Feb-03 11:14N 48°50' W 122°43'0 0.0
2016-Feb-03 10:26N 48°50' W 122°43'0 0.0
2016-Feb-03 09:26N 48°50' W 122°43'0 0.0
2016-Feb-03 08:26N 48°50' W 122°43'0 0.0
2016-Feb-03 06:32N 48°50' W 122°43'0 0.0
2016-Feb-03 01:14N 48°50' W 122°43'0 0.0
2016-Feb-02 06:29N 48°50' W 122°43'0 0.0
2016-Feb-02 05:29N 48°50' W 122°43'0 0.0
2016-Feb-02 04:05N 48°50' W 122°43'0 0.0
2016-Feb-02 03:32N 48°50' W 122°43'0 0.0
2016-Feb-02 00:08N 48°50' W 122°43'0 0.0
2016-Feb-01 23:32N 48°50' W 122°43'0 0.0
2016-Feb-01 20:29N 48°50' W 122°43'0 0.0
2016-Feb-01 18:14N 48°50' W 122°43'0 0.0
2016-Feb-01 07:32N 48°50' W 122°43'0 0.0
2016-Feb-01 04:26N 48°50' W 122°43'0 0.0
2016-Feb-01 03:32N 48°50' W 122°43'0 0.0
2016-Feb-01 00:14N 48°50' W 122°43'0 0.0
2016-Jan-31 22:08N 48°50' W 122°43'0 0.0
2016-Jan-31 21:32N 48°50' W 122°43'0 0.0
2016-Jan-31 20:23N 48°50' W 122°43'0 0.0
2016-Jan-31 18:32N 48°50' W 122°43'0 0.0
2016-Jan-31 17:26N 48°50' W 122°43'0 0.0
2016-Jan-31 07:26N 48°50' W 122°43'0 0.0
2016-Jan-31 03:23N 48°50' W 122°43'0 0.0
2016-Jan-30 22:26N 48°50' W 122°43'0 0.0
2016-Jan-30 21:32N 48°50' W 122°43'0 0.0
2016-Jan-30 15:14N 48°50' W 122°43'0 0.0
2016-Jan-30 14:29N 48°50' W 122°43'0 0.0
2016-Jan-30 13:29N 48°50' W 122°43'0 0.0
2016-Jan-30 12:20N 48°50' W 122°43'0 0.0
2016-Jan-30 11:32N 48°50' W 122°43'0 0.0
2016-Jan-30 10:14N 48°50' W 122°43'0 0.0
2016-Jan-30 09:26N 48°50' W 122°43'0 0.0
2016-Jan-30 08:32N 48°50' W 122°43'0 0.0
2016-Jan-30 07:29N 48°50' W 122°43'0 0.0
2016-Jan-30 06:23N 48°50' W 122°43'0 0.0
2016-Jan-30 03:26N 48°50' W 122°43'0 0.0
2016-Jan-30 02:23N 48°50' W 122°43'5 2.6
2016-Jan-30 00:30N 48°45' W 122°42'0 0.0
2016-Jan-29 23:21N 48°45' W 122°42'0 0.0
2016-Jan-29 22:30N 48°45' W 122°42'5 4.8
2016-Jan-29 21:29N 48°50' W 122°43'0 0.0
2016-Jan-29 14:18N 48°50' W 122°43'0 0.0
2016-Jan-29 13:31N 48°50' W 122°43'0 0.0
2016-Jan-29 12:33N 48°50' W 122°43'0 0.0
2016-Jan-29 11:18N 48°50' W 122°43'0 0.0
2016-Jan-29 10:24N 48°50' W 122°43'0 0.0
2016-Jan-29 09:30N 48°50' W 122°43'0 0.0
2016-Jan-29 04:27N 48°50' W 122°43'0 0.0
2016-Jan-29 01:24N 48°50' W 122°43'0 0.0
2016-Jan-29 00:24N 48°50' W 122°43'0 0.0
2016-Jan-28 23:18N 48°50' W 122°43'0 0.0
2016-Jan-28 22:09N 48°50' W 122°43'0 0.0
2016-Jan-28 18:27N 48°50' W 122°43'0 0.0
2016-Jan-28 16:33N 48°50' W 122°43'0 0.0
2016-Jan-28 14:33N 48°50' W 122°43'0 0.0
2016-Jan-28 03:24N 48°50' W 122°43'0 0.0
2016-Jan-27 22:27N 48°50' W 122°43'0 0.0
2016-Jan-27 20:09N 48°50' W 122°43'0 0.0
2016-Jan-27 18:24N 48°50' W 122°43'  

Dump ship's entire track history